Observation data for Northwest Lubbock on 07/09/2018      Previous  Date  Next       Current Mesonet Observations  Soil Data  Daily Summary Page  Observations in Plain Language
KLBW 090500Z 11004KT 24/15 A3022 RMK A01 T02380150  RH  060%=      5-min Rain = 0
KLBW 090505Z 10004KT 24/15 A3022 RMK A01 T02370150  RH  061%=      5-min Rain = 0
KLBW 090510Z 10004KT 24/15 A3022 RMK A01 T02370150  RH  061%=      5-min Rain = 0
KLBW 090515Z 10003KT 24/15 A3022 RMK A01 T02350151  RH  062%=      5-min Rain = 0
KLBW 090520Z 09004KT 23/15 A3023 RMK A01 T02330151  RH  063%=      5-min Rain = 0
KLBW 090525Z 09004KT 23/15 A3023 RMK A01 T02310151  RH  063%=      5-min Rain = 0
KLBW 090530Z 09004KT 23/15 A3023 RMK A01 T02300151  RH  064%=      5-min Rain = 0
KLBW 090535Z 10004KT 23/15 A3023 RMK A01 T02300152  RH  064%=      5-min Rain = 0
KLBW 090540Z 10004KT 23/15 A3022 RMK A01 T02310152  RH  064%=      5-min Rain = 0
KLBW 090545Z 09004KT 23/15 A3022 RMK A01 T02300152  RH  064%=      5-min Rain = 0
KLBW 090550Z 10004KT 23/15 A3023 RMK A01 T02280152  RH  065%=      5-min Rain = 0
KLBW 090555Z 10003KT 23/15 A3023 RMK A01 T02280152  RH  065%=      5-min Rain = 0
KLBW 090600Z 10003KT 23/15 A3023 RMK A01 T02270151  RH  065%=      5-min Rain = 0
KLBW 090605Z 11003KT 23/15 A3023 RMK A01 T02260150  RH  065%=      5-min Rain = 0
KLBW 090610Z 11003KT 23/15 A3023 RMK A01 T02270150  RH  065%=      5-min Rain = 0
KLBW 090615Z 12003KT 23/15 A3023 RMK A01 T02250150  RH  065%=      5-min Rain = 0
KLBW 090620Z 12003KT 23/15 A3023 RMK A01 T02250150  RH  065%=      5-min Rain = 0
KLBW 090625Z 12004KT 23/15 A3023 RMK A01 T02250151  RH  066%=      5-min Rain = 0
KLBW 090630Z 12003KT 23/15 A3023 RMK A01 T02250152  RH  066%=      5-min Rain = 0
KLBW 090635Z 11003KT 22/15 A3023 RMK A01 T02240152  RH  067%=      5-min Rain = 0
KLBW 090640Z 11003KT 22/15 A3023 RMK A01 T02230151  RH  067%=      5-min Rain = 0
KLBW 090645Z 09003KT 22/15 A3022 RMK A01 T02220152  RH  067%=      5-min Rain = 0
KLBW 090650Z 08003KT 22/15 A3022 RMK A01 T02200152  RH  068%=      5-min Rain = 0
KLBW 090655Z 09003KT 22/15 A3022 RMK A01 T02200152  RH  069%=      5-min Rain = 0
KLBW 090700Z 08003KT 22/15 A3022 RMK A01 T02180152  RH  069%=      5-min Rain = 0
KLBW 090705Z 09002KT 22/15 A3022 RMK A01 T02170152  RH  070%=      5-min Rain = 0
KLBW 090710Z 10002KT 22/15 A3022 RMK A01 T02150152  RH  071%=      5-min Rain = 0
KLBW 090715Z 09002KT 21/15 A3022 RMK A01 T02130149  RH  070%=      5-min Rain = 0
KLBW 090720Z 06003KT 21/15 A3022 RMK A01 T02090148  RH  071%=      5-min Rain = 0
KLBW 090725Z 07003KT 21/15 A3022 RMK A01 T02090153  RH  074%=      5-min Rain = 0
KLBW 090730Z 07002KT 21/16 A3022 RMK A01 T02100157  RH  075%=      5-min Rain = 0
KLBW 090735Z 08002KT 21/16 A3022 RMK A01 T02120157  RH  074%=      5-min Rain = 0
KLBW 090740Z 09003KT 21/16 A3022 RMK A01 T02120156  RH  074%=      5-min Rain = 0
KLBW 090745Z 10003KT 21/16 A3022 RMK A01 T02090155  RH  075%=      5-min Rain = 0
KLBW 090750Z 10002KT 21/15 A3022 RMK A01 T02060153  RH  075%=      5-min Rain = 0
KLBW 090755Z 10003KT 21/16 A3022 RMK A01 T02050155  RH  076%=      5-min Rain = 0
KLBW 090800Z 09003KT 21/16 A3022 RMK A01 T02060157  RH  077%=      5-min Rain = 0
KLBW 090805Z 10003KT 21/16 A3022 RMK A01 T02070156  RH  076%=      5-min Rain = 0
KLBW 090810Z 12005KT 21/16 A3022 RMK A01 T02120156  RH  074%=      5-min Rain = 0
KLBW 090815Z 12005KT 22/16 A3022 RMK A01 T02200156  RH  070%=      5-min Rain = 0
KLBW 090820Z 11006KT 22/16 A3022 RMK A01 T02230155  RH  069%=      5-min Rain = 0
KLBW 090825Z 11005KT 22/16 A3022 RMK A01 T02230155  RH  068%=      5-min Rain = 0
KLBW 090830Z 12006KT 22/16 A3022 RMK A01 T02230155  RH  068%=      5-min Rain = 0
KLBW 090835Z 12006KT 22/16 A3022 RMK A01 T02230155  RH  069%=      5-min Rain = 0
KLBW 090840Z 11005KT 22/16 A3022 RMK A01 T02220155  RH  069%=      5-min Rain = 0
KLBW 090845Z 12006KT 22/16 A3022 RMK A01 T02220156  RH  069%=      5-min Rain = 0
KLBW 090850Z 12005KT 22/16 A3022 RMK A01 T02210156  RH  070%=      5-min Rain = 0
KLBW 090855Z 12004KT 22/16 A3022 RMK A01 T02190157  RH  071%=      5-min Rain = 0
KLBW 090900Z 13004KT 22/16 A3022 RMK A01 T02190157  RH  071%=      5-min Rain = 0
KLBW 090905Z 13004KT 22/16 A3022 RMK A01 T02180156  RH  071%=      5-min Rain = 0
KLBW 090910Z 13004KT 22/16 A3022 RMK A01 T02170156  RH  072%=      5-min Rain = 0
KLBW 090915Z 13004KT 22/16 A3022 RMK A01 T02170157  RH  072%=      5-min Rain = 0
KLBW 090920Z 12004KT 22/16 A3022 RMK A01 T02170157  RH  072%=      5-min Rain = 0
KLBW 090925Z 12004KT 22/16 A3022 RMK A01 T02160157  RH  073%=      5-min Rain = 0
KLBW 090930Z 12004KT 22/16 A3022 RMK A01 T02150158  RH  073%=      5-min Rain = 0
KLBW 090935Z 12003KT 22/16 A3022 RMK A01 T02150158  RH  073%=      5-min Rain = 0
KLBW 090940Z 11002KT 21/16 A3022 RMK A01 T02140158  RH  074%=      5-min Rain = 0
KLBW 090945Z 08002KT 21/16 A3023 RMK A01 T02130158  RH  074%=      5-min Rain = 0
KLBW 090950Z 06002KT 21/16 A3023 RMK A01 T02120158  RH  075%=      5-min Rain = 0
KLBW 090955Z 06003KT 21/16 A3023 RMK A01 T02110158  RH  075%=      5-min Rain = 0
KLBW 091000Z 07003KT 21/16 A3023 RMK A01 T02090160  RH  077%=      5-min Rain = 0
KLBW 091005Z 08003KT 21/16 A3023 RMK A01 T02080161  RH  078%=      5-min Rain = 0
KLBW 091010Z 09002KT 21/16 A3023 RMK A01 T02070162  RH  079%=      5-min Rain = 0
KLBW 091015Z 09002KT 21/16 A3023 RMK A01 T02050162  RH  080%=      5-min Rain = 0
KLBW 091020Z 08002KT 20/16 A3023 RMK A01 T02030161  RH  081%=      5-min Rain = 0
KLBW 091025Z 08002KT 20/16 A3023 RMK A01 T02020162  RH  082%=      5-min Rain = 0
KLBW 091030Z 08002KT 20/16 A3023 RMK A01 T02010161  RH  082%=      5-min Rain = 0
KLBW 091035Z 08002KT 20/16 A3023 RMK A01 T02000161  RH  082%=      5-min Rain = 0
KLBW 091040Z 08002KT 20/16 A3023 RMK A01 T01990162  RH  083%=      5-min Rain = 0
KLBW 091045Z 08003KT 20/16 A3024 RMK A01 T01980162  RH  084%=      5-min Rain = 0
KLBW 091050Z 08003KT 20/16 A3024 RMK A01 T01970163  RH  084%=      5-min Rain = 0
KLBW 091055Z 09002KT 20/16 A3023 RMK A01 T01970163  RH  085%=      5-min Rain = 0
KLBW 091100Z 09002KT 20/16 A3023 RMK A01 T01950162  RH  085%=      5-min Rain = 0
KLBW 091105Z 10002KT 19/16 A3024 RMK A01 T01930161  RH  086%=      5-min Rain = 0
KLBW 091110Z 11002KT 19/16 A3024 RMK A01 T01900158  RH  085%=      5-min Rain = 0
KLBW 091115Z 11002KT 19/16 A3024 RMK A01 T01870155  RH  086%=      5-min Rain = 0
KLBW 091120Z 11002KT 19/16 A3024 RMK A01 T01870158  RH  087%=      5-min Rain = 0
KLBW 091125Z 11002KT 19/16 A3024 RMK A01 T01850156  RH  087%=      5-min Rain = 0
KLBW 091130Z 10002KT 18/16 A3024 RMK A01 T01830155  RH  088%=      5-min Rain = 0
KLBW 091135Z 09002KT 18/16 A3025 RMK A01 T01830157  RH  089%=      5-min Rain = 0
KLBW 091140Z 08002KT 18/16 A3025 RMK A01 T01820158  RH  090%=      5-min Rain = 0
KLBW 091145Z 06002KT 18/16 A3025 RMK A01 T01820158  RH  090%=      5-min Rain = 0
KLBW 091150Z 05003KT 18/16 A3025 RMK A01 T01840160  RH  090%=      5-min Rain = 0
KLBW 091155Z 04003KT 19/16 A3025 RMK A01 T01860161  RH  089%=      5-min Rain = 0
KLBW 091200Z 05003KT 19/16 A3025 RMK A01 T01900163  RH  089%=      5-min Rain = 0
KLBW 091205Z 06002KT 20/17 A3025 RMK A01 T01960167  RH  088%=      5-min Rain = 0
KLBW 091210Z 06002KT 20/17 A3026 RMK A01 T01980167  RH  087%=      5-min Rain = 0
KLBW 091215Z 06002KT 20/17 A3026 RMK A01 T02000168  RH  086%=      5-min Rain = 0
KLBW 091220Z 06003KT 20/17 A3026 RMK A01 T02000166  RH  085%=      5-min Rain = 0
KLBW 091225Z 06002KT 20/17 A3026 RMK A01 T02010166  RH  084%=      5-min Rain = 0
KLBW 091230Z 07003KT 20/17 A3026 RMK A01 T02020168  RH  084%=      5-min Rain = 0
KLBW 091235Z 06003KT 21/17 A3026 RMK A01 T02060170  RH  084%=      5-min Rain = 0
KLBW 091240Z 06002KT 21/17 A3027 RMK A01 T02120171  RH  082%=      5-min Rain = 0
KLBW 091245Z 05003KT 22/17 A3027 RMK A01 T02160171  RH  079%=      5-min Rain = 0
KLBW 091250Z 05003KT 22/17 A3027 RMK A01 T02190170  RH  078%=      5-min Rain = 0
KLBW 091255Z 06003KT 22/17 A3027 RMK A01 T02220171  RH  077%=      5-min Rain = 0
KLBW 091300Z 08002KT 22/17 A3027 RMK A01 T02240172  RH  076%=      5-min Rain = 0
KLBW 091305Z 12003KT 23/17 A3028 RMK A01 T02260172  RH  075%=      5-min Rain = 0
KLBW 091310Z 10003KT 23/17 A3028 RMK A01 T02280172  RH  074%=      5-min Rain = 0
KLBW 091315Z 09003KT 23/17 A3028 RMK A01 T02290171  RH  074%=      5-min Rain = 0
KLBW 091320Z 10002KT 23/17 A3028 RMK A01 T02320172  RH  073%=      5-min Rain = 0
KLBW 091325Z 11003KT 24/17 A3028 RMK A01 T02350171  RH  071%=      5-min Rain = 0
KLBW 091330Z 13004KT 24/17 A3028 RMK A01 T02380171  RH  069%=      5-min Rain = 0
KLBW 091335Z 13004KT 24/17 A3028 RMK A01 T02400169  RH  068%=      5-min Rain = 0
KLBW 091340Z 12003KT 24/17 A3028 RMK A01 T02420168  RH  067%=      5-min Rain = 0
KLBW 091345Z 12003KT 24/17 A3028 RMK A01 T02430168  RH  066%=      5-min Rain = 0
KLBW 091350Z 11003KT 24/17 A3029 RMK A01 T02440167  RH  065%=      5-min Rain = 0
KLBW 091355Z 10002KT 25/17 A3029 RMK A01 T02480167  RH  064%=      5-min Rain = 0
KLBW 091400Z 09002KT 25/17 A3029 RMK A01 T02480166  RH  063%=      5-min Rain = 0
KLBW 091405Z 07003KT 25/17 A3029 RMK A01 T02480165  RH  063%=      5-min Rain = 0
KLBW 091410Z 07002KT 25/16 A3029 RMK A01 T02480164  RH  063%=      5-min Rain = 0
KLBW 091415Z 08002KT 25/16 A3029 RMK A01 T02520164  RH  061%=      5-min Rain = 0
KLBW 091420Z 09001KT 26/17 A3029 RMK A01 T02560165  RH  060%=      5-min Rain = 0
KLBW 091425Z 09002KT 26/17 A3029 RMK A01 T02600165  RH  059%=      5-min Rain = 0
KLBW 091430Z 10002KT 26/17 A3029 RMK A01 T02610165  RH  058%=      5-min Rain = 0
KLBW 091435Z 10003KT 26/16 A3029 RMK A01 T02620163  RH  057%=      5-min Rain = 0
KLBW 091440Z 10002KT 26/16 A3029 RMK A01 T02620162  RH  057%=      5-min Rain = 0
KLBW 091445Z 09002KT 27/16 A3029 RMK A01 T02650161  RH  055%=      5-min Rain = 0
KLBW 091450Z 14002KT 27/16 A3029 RMK A01 T02680164  RH  055%=      5-min Rain = 0
KLBW 091455Z 09003KT 27/16 A3029 RMK A01 T02670162  RH  055%=      5-min Rain = 0
KLBW 091500Z 11001KT 27/16 A3029 RMK A01 T02680161  RH  055%=      5-min Rain = 0
KLBW 091505Z 08004KT 27/16 A3029 RMK A01 T02700161  RH  054%=      5-min Rain = 0
KLBW 091510Z 05002KT 27/16 A3029 RMK A01 T02700159  RH  053%=      5-min Rain = 0
KLBW 091515Z 11004KT 28/16 A3029 RMK A01 T02750160  RH  052%=      5-min Rain = 0
KLBW 091520Z 10004KT 28/16 A3029 RMK A01 T02790158  RH  050%=      5-min Rain = 0
KLBW 091525Z 10003KT 28/16 A3029 RMK A01 T02790158  RH  050%=      5-min Rain = 0
KLBW 091530Z 07005KT 28/16 A3029 RMK A01 T02760157  RH  050%=      5-min Rain = 0
KLBW 091535Z 11004KT 28/16 A3029 RMK A01 T02780157  RH  050%=      5-min Rain = 0
KLBW 091540Z 13006KT 28/16 A3029 RMK A01 T02830157  RH  048%=      5-min Rain = 0
KLBW 091545Z 13004KT 28/16 A3029 RMK A01 T02810155  RH  048%=      5-min Rain = 0
KLBW 091550Z 11004G9KT 29/16 A3029 RMK A01 T02860158  RH  048%=      5-min Rain = 0
KLBW 091555Z 11005KT 29/16 A3029 RMK A01 T02900156  RH  046%=      5-min Rain = 0
KLBW 091600Z 12005KT 29/16 A3028 RMK A01 T02860156  RH  047%=      5-min Rain = 0
KLBW 091605Z 14005KT 29/16 A3028 RMK A01 T02890155  RH  046%=      5-min Rain = 0
KLBW 091610Z 08006KT 29/15 A3029 RMK A01 T02850152  RH  046%=      5-min Rain = 0
KLBW 091615Z 12004G9KT 29/15 A3029 RMK A01 T02890152  RH  046%=      5-min Rain = 0
KLBW 091620Z 10005KT 29/15 A3028 RMK A01 T02910154  RH  045%=      5-min Rain = 0
KLBW 091625Z 09004KT 29/15 A3028 RMK A01 T02930152  RH  044%=      5-min Rain = 0
KLBW 091630Z 12004G9KT 29/15 A3028 RMK A01 T02930152  RH  044%=      5-min Rain = 0
KLBW 091635Z 10008KT 30/15 A3029 RMK A01 T02990152  RH  043%=      5-min Rain = 0
KLBW 091640Z 11005G10KT 30/15 A3028 RMK A01 T02960149  RH  043%=      5-min Rain = 0
KLBW 091645Z 09006KT 30/15 A3028 RMK A01 T02980150  RH  043%=      5-min Rain = 0
KLBW 091650Z 10007KT 30/15 A3029 RMK A01 T03030151  RH  042%=      5-min Rain = 0
KLBW 091655Z 08006KT 30/15 A3029 RMK A01 T02950146  RH  042%=      5-min Rain = 0
KLBW 091700Z 07006KT 30/15 A3029 RMK A01 T02950148  RH  043%=      5-min Rain = 0
KLBW 091705Z 10007KT 30/15 A3029 RMK A01 T03030148  RH  041%=      5-min Rain = 0
KLBW 091710Z 06005G10KT 30/15 A3028 RMK A01 T02950147  RH  042%=      5-min Rain = 0
KLBW 091715Z 09008KT 31/15 A3028 RMK A01 T03070146  RH  039%=      5-min Rain = 0
KLBW 091720Z 09009KT 30/14 A3028 RMK A01 T03030143  RH  040%=      5-min Rain = 0
KLBW 091725Z 13006KT 31/15 A3028 RMK A01 T03050146  RH  040%=      5-min Rain = 0
KLBW 091730Z 11007KT 31/14 A3028 RMK A01 T03050143  RH  039%=      5-min Rain = 0
KLBW 091735Z 11008KT 29/14 A3028 RMK A01 T02930141  RH  041%=      5-min Rain = 0
KLBW 091740Z 12008G15KT 30/14 A3028 RMK A01 T02950143  RH  041%=      5-min Rain = 0
KLBW 091745Z 12008KT 30/14 A3028 RMK A01 T03030144  RH  040%=      5-min Rain = 0
KLBW 091750Z 14009KT 31/15 A3028 RMK A01 T03060145  RH  039%=      5-min Rain = 0
KLBW 091755Z 13009KT 30/14 A3027 RMK A01 T02970144  RH  041%=      5-min Rain = 0
KLBW 091800Z 11008G13KT 29/14 A3027 RMK A01 T02910141  RH  042%=      5-min Rain = 0
KLBW 091805Z 12007G13KT 29/14 A3027 RMK A01 T02920138  RH  041%=      5-min Rain = 0
KLBW 091810Z 12007G14KT 31/15 A3027 RMK A01 T03080145  RH  039%=      5-min Rain = 0
KLBW 091815Z 13010KT 31/15 A3027 RMK A01 T03140146  RH  038%=      5-min Rain = 0
KLBW 091820Z 13009KT 31/14 A3027 RMK A01 T03070144  RH  039%=      5-min Rain = 0
KLBW 091825Z 12010G15KT 30/15 A3027 RMK A01 T03030146  RH  040%=      5-min Rain = 0
KLBW 091830Z 11011G19KT 30/14 A3026 RMK A01 T02950141  RH  041%=      5-min Rain = 0
KLBW 091835Z 13010KT 29/14 A3026 RMK A01 T02930140  RH  041%=      5-min Rain = 0
KLBW 091840Z 13010G15KT 29/14 A3026 RMK A01 T02930137  RH  040%=      5-min Rain = 0
KLBW 091845Z 14009KT 30/14 A3026 RMK A01 T02960136  RH  039%=      5-min Rain = 0
KLBW 091850Z 12009KT 31/14 A3025 RMK A01 T03080135  RH  036%=      5-min Rain = 0
KLBW 091855Z 12010KT 31/13 A3025 RMK A01 T03130134  RH  035%=      5-min Rain = 0
KLBW 091900Z 12009G14KT 31/13 A3025 RMK A01 T03140132  RH  034%=      5-min Rain = 0
KLBW 091905Z 11007G12KT 31/13 A3025 RMK A01 T03110132  RH  035%=      5-min Rain = 0
KLBW 091910Z 11008KT 31/13 A3024 RMK A01 T03120133  RH  035%=      5-min Rain = 0
KLBW 091915Z 12010G17KT 32/13 A3024 RMK A01 T03190132  RH  033%=      5-min Rain = 0
KLBW 091920Z 11007G12KT 32/13 A3024 RMK A01 T03180129  RH  033%=      5-min Rain = 0
KLBW 091925Z 13007KT 32/13 A3023 RMK A01 T03190129  RH  033%=      5-min Rain = 0
KLBW 091930Z 11008G13KT 32/13 A3023 RMK A01 T03170130  RH  033%=      5-min Rain = 0
KLBW 091935Z 11009G14KT 32/13 A3023 RMK A01 T03240133  RH  033%=      5-min Rain = 0
KLBW 091940Z 10007KT 32/13 A3023 RMK A01 T03190130  RH  033%=      5-min Rain = 0
KLBW 091945Z 10009G19KT 32/13 A3023 RMK A01 T03230131  RH  032%=      5-min Rain = 0
KLBW 091950Z 09008G14KT 32/13 A3022 RMK A01 T03180130  RH  033%=      5-min Rain = 0
KLBW 091955Z 14008G13KT 32/13 A3022 RMK A01 T03200128  RH  032%=      5-min Rain = 0
KLBW 092000Z 10007G13KT 32/13 A3022 RMK A01 T03190125  RH  032%=      5-min Rain = 0
KLBW 092005Z 11008KT 32/13 A3022 RMK A01 T03210131  RH  033%=      5-min Rain = 0
KLBW 092010Z 08009KT 32/13 A3022 RMK A01 T03220129  RH  032%=      5-min Rain = 0
KLBW 092015Z 09007KT 31/13 A3022 RMK A01 T03100127  RH  034%=      5-min Rain = 0
KLBW 092020Z 10009G14KT 32/13 A3022 RMK A01 T03160128  RH  033%=      5-min Rain = 0
KLBW 092025Z 09006G14KT 32/13 A3022 RMK A01 T03230128  RH  032%=      5-min Rain = 0
KLBW 092030Z 11008G14KT 33/13 A3022 RMK A01 T03250128  RH  031%=      5-min Rain = 0
KLBW 092035Z 10010G15KT 33/13 A3022 RMK A01 T03280128  RH  031%=      5-min Rain = 0
KLBW 092040Z 14009KT 32/13 A3022 RMK A01 T03190126  RH  032%=      5-min Rain = 0
KLBW 092045Z 12009G14KT 32/12 A3021 RMK A01 T03210124  RH  031%=      5-min Rain = 0
KLBW 092050Z 08009G14KT 31/12 A3021 RMK A01 T03130120  RH  032%=      5-min Rain = 0
KLBW 092055Z 10007G15KT 32/12 A3021 RMK A01 T03150119  RH  031%=      5-min Rain = 0
KLBW 092100Z 11007G13KT 32/12 A3021 RMK A01 T03220122  RH  031%=      5-min Rain = 0
KLBW 092105Z 09006G13KT 33/12 A3021 RMK A01 T03250122  RH  030%=      5-min Rain = 0
KLBW 092110Z 09008KT 32/12 A302 RMK A01 T03230118  RH  030%=      5-min Rain = 0
KLBW 092115Z 13009G18KT 33/12 A302 RMK A01 T03270122  RH  030%=      5-min Rain = 0
KLBW 092120Z 08009G16KT 33/12 A302 RMK A01 T03260121  RH  030%=      5-min Rain = 0
KLBW 092125Z 09009G15KT 32/12 A302 RMK A01 T03230121  RH  030%=      5-min Rain = 0
KLBW 092130Z 08012KT 32/12 A302 RMK A01 T03240122  RH  030%=      5-min Rain = 0
KLBW 092135Z 10011G16KT 32/12 A302 RMK A01 T03240123  RH  030%=      5-min Rain = 0
KLBW 092140Z 08010G15KT 32/12 A302 RMK A01 T03210124  RH  031%=      5-min Rain = 0
KLBW 092145Z 08012G18KT 33/13 A302 RMK A01 T03280125  RH  030%=      5-min Rain = 0
KLBW 092150Z 07011KT 32/12 A302 RMK A01 T03170119  RH  031%=      5-min Rain = 0
KLBW 092155Z 10009G15KT 32/12 A302 RMK A01 T03180123  RH  031%=      5-min Rain = 0
KLBW 092200Z 10009G15KT 32/12 A302 RMK A01 T03240121  RH  030%=      5-min Rain = 0
KLBW 092205Z 11009G14KT 33/12 A302 RMK A01 T03280123  RH  030%=      5-min Rain = 0
KLBW 092210Z 11013KT 33/12 A3019 RMK A01 T03260123  RH  030%=      5-min Rain = 0
KLBW 092215Z 09011G17KT 32/12 A3019 RMK A01 T03170120  RH  031%=      5-min Rain = 0
KLBW 092220Z 08008G16KT 31/12 A3019 RMK A01 T03110121  RH  032%=      5-min Rain = 0
KLBW 092225Z 09009G15KT 31/12 A302 RMK A01 T03110122  RH  032%=      5-min Rain = 0
KLBW 092230Z 10008G13KT 32/12 A302 RMK A01 T03210121  RH  031%=      5-min Rain = 0
KLBW 092235Z 08010G15KT 32/12 A302 RMK A01 T03220121  RH  030%=      5-min Rain = 0
KLBW 092240Z 08009G15KT 32/12 A302 RMK A01 T03150120  RH  031%=      5-min Rain = 0
KLBW 092245Z 10009G15KT 32/12 A302 RMK A01 T03220121  RH  030%=      5-min Rain = 0
KLBW 092250Z 10011G17KT 32/12 A302 RMK A01 T03160119  RH  031%=      5-min Rain = 0
KLBW 092255Z 09009G14KT 32/12 A302 RMK A01 T03230121  RH  030%=      5-min Rain = 0
KLBW 092300Z 09009G14KT 33/12 A302 RMK A01 T03250120  RH  030%=      5-min Rain = 0
KLBW 092305Z 08011KT 32/12 A302 RMK A01 T03230117  RH  030%=      5-min Rain = 0
KLBW 092310Z 09010KT 32/12 A3019 RMK A01 T03190115  RH  030%=      5-min Rain = 0
KLBW 092315Z 11009KT 32/11 A3019 RMK A01 T03210113  RH  029%=      5-min Rain = 0
KLBW 092320Z 10009KT 32/12 A3019 RMK A01 T03210116  RH  029%=      5-min Rain = 0
KLBW 092325Z 08009G15KT 32/12 A3019 RMK A01 T03240116  RH  029%=      5-min Rain = 0
KLBW 092330Z 09011KT 32/11 A3019 RMK A01 T03200114  RH  029%=      5-min Rain = 0
KLBW 092335Z 10010KT 32/11 A3019 RMK A01 T03170113  RH  030%=      5-min Rain = 0
KLBW 092340Z 10010KT 32/11 A3019 RMK A01 T03160113  RH  030%=      5-min Rain = 0
KLBW 092345Z 09008G16KT 32/11 A3019 RMK A01 T03160114  RH  030%=      5-min Rain = 0
KLBW 092350Z 09011G17KT 32/11 A3019 RMK A01 T03160113  RH  030%=      5-min Rain = 0
KLBW 092355Z 08010G16KT 32/12 A3019 RMK A01 T03160115  RH  030%=      5-min Rain = 0
KLBW 100000Z 11008G13KT 32/12 A3019 RMK A01 T03170116  RH  030%=      5-min Rain = 0
KLBW 100005Z 09010G17KT 32/11 A3019 RMK A01 T03170109  RH  029%=      5-min Rain = 0
KLBW 100010Z 10008G14KT 31/10 A3019 RMK A01 T03110103  RH  029%=      5-min Rain = 0
KLBW 100015Z 09007G12KT 31/11 A3019 RMK A01 T03100108  RH  030%=      5-min Rain = 0
KLBW 100020Z 10008G14KT 31/11 A3019 RMK A01 T03080112  RH  031%=      5-min Rain = 0
KLBW 100025Z 11009G15KT 31/11 A3019 RMK A01 T03060112  RH  031%=      5-min Rain = 0
KLBW 100030Z 11010KT 31/11 A3019 RMK A01 T03050110  RH  031%=      5-min Rain = 0
KLBW 100035Z 10010KT 30/11 A3019 RMK A01 T03030109  RH  031%=      5-min Rain = 0
KLBW 100040Z 11009G14KT 30/11 A3019 RMK A01 T03030105  RH  030%=      5-min Rain = 0
KLBW 100045Z 11009G14KT 30/10 A302 RMK A01 T03020104  RH  030%=      5-min Rain = 0
KLBW 100050Z 10007G12KT 30/11 A302 RMK A01 T03010105  RH  031%=      5-min Rain = 0
KLBW 100055Z 11010G16KT 30/11 A302 RMK A01 T03000109  RH  032%=      5-min Rain = 0
KLBW 100100Z 11009KT 30/11 A302 RMK A01 T03000110  RH  032%=      5-min Rain = 0
KLBW 100105Z 10010KT 30/11 A302 RMK A01 T03020108  RH  031%=      5-min Rain = 0
KLBW 100110Z 10010KT 30/11 A302 RMK A01 T03030108  RH  031%=      5-min Rain = 0
KLBW 100115Z 10009KT 30/11 A302 RMK A01 T03020110  RH  032%=      5-min Rain = 0
KLBW 100120Z 10008G13KT 30/11 A302 RMK A01 T03010112  RH  032%=      5-min Rain = 0
KLBW 100125Z 11009G15KT 30/11 A302 RMK A01 T03000111  RH  032%=      5-min Rain = 0
KLBW 100130Z 11010KT 30/11 A302 RMK A01 T02990110  RH  032%=      5-min Rain = 0
KLBW 100135Z 11009KT 30/11 A302 RMK A01 T02970108  RH  032%=      5-min Rain = 0
KLBW 100140Z 11009KT 30/11 A302 RMK A01 T02970108  RH  032%=      5-min Rain = 0
KLBW 100145Z 10007KT 30/11 A302 RMK A01 T02950108  RH  032%=      5-min Rain = 0
KLBW 100150Z 15007KT 29/11 A3021 RMK A01 T02930112  RH  034%=      5-min Rain = 0
KLBW 100155Z 19011G18KT 28/15 A3021 RMK A01 T02800146  RH  046%=      5-min Rain = 0
KLBW 100200Z 18013G18KT 27/15 A3022 RMK A01 T02710150  RH  050%=      5-min Rain = 0
KLBW 100205Z 18010KT 27/15 A3022 RMK A01 T02690150  RH  050%=      5-min Rain = 0
KLBW 100210Z 18009G14KT 27/15 A3022 RMK A01 T02670151  RH  051%=      5-min Rain = 0
KLBW 100215Z 19009KT 27/15 A3022 RMK A01 T02660152  RH  052%=      5-min Rain = 0
KLBW 100220Z 19009G14KT 26/15 A3022 RMK A01 T02640151  RH  052%=      5-min Rain = 0
KLBW 100225Z 17009G14KT 26/15 A3022 RMK A01 T02630150  RH  052%=      5-min Rain = 0
KLBW 100230Z 18009G14KT 26/15 A3022 RMK A01 T02630149  RH  052%=      5-min Rain = 0
KLBW 100235Z 18009G14KT 26/15 A3023 RMK A01 T02630149  RH  052%=      5-min Rain = 0
KLBW 100240Z 17009KT 26/15 A3023 RMK A01 T02620149  RH  052%=      5-min Rain = 0
KLBW 100245Z 18011KT 26/15 A3023 RMK A01 T02610149  RH  052%=      5-min Rain = 0
KLBW 100250Z 18008KT 26/15 A3023 RMK A01 T02600149  RH  053%=      5-min Rain = 0
KLBW 100255Z 17010KT 26/15 A3023 RMK A01 T02590150  RH  053%=      5-min Rain = 0
KLBW 100300Z 17009KT 26/15 A3023 RMK A01 T02580150  RH  053%=      5-min Rain = 0
KLBW 100305Z 18009KT 26/15 A3024 RMK A01 T02570150  RH  054%=      5-min Rain = 0
KLBW 100310Z 18008KT 26/15 A3023 RMK A01 T02570150  RH  054%=      5-min Rain = 0
KLBW 100315Z 19007KT 26/15 A3024 RMK A01 T02550151  RH  055%=      5-min Rain = 0
KLBW 100320Z 19008KT 25/15 A3024 RMK A01 T02540152  RH  055%=      5-min Rain = 0
KLBW 100325Z 19009KT 25/15 A3024 RMK A01 T02540151  RH  055%=      5-min Rain = 0
KLBW 100330Z 19008KT 25/15 A3024 RMK A01 T02520151  RH  056%=      5-min Rain = 0
KLBW 100335Z 19008KT 25/15 A3024 RMK A01 T02520151  RH  056%=      5-min Rain = 0
KLBW 100340Z 19007KT 25/15 A3024 RMK A01 T02510151  RH  056%=      5-min Rain = 0
KLBW 100345Z 20006KT 25/15 A3024 RMK A01 T02500151  RH  057%=      5-min Rain = 0
KLBW 100350Z 20006KT 25/15 A3025 RMK A01 T02490152  RH  057%=      5-min Rain = 0
KLBW 100355Z 20006KT 25/15 A3025 RMK A01 T02480153  RH  058%=      5-min Rain = 0
KLBW 100400Z 20005KT 25/15 A3025 RMK A01 T02470153  RH  059%=      5-min Rain = 0
KLBW 100405Z 21005KT 25/15 A3025 RMK A01 T02450153  RH  059%=      5-min Rain = 0
KLBW 100410Z 21005KT 24/15 A3025 RMK A01 T02440153  RH  060%=      5-min Rain = 0
KLBW 100415Z 20006KT 24/15 A3025 RMK A01 T02430153  RH  060%=      5-min Rain = 0
KLBW 100420Z 20005KT 24/15 A3025 RMK A01 T02430153  RH  060%=      5-min Rain = 0
KLBW 100425Z 20006KT 24/15 A3025 RMK A01 T02430152  RH  059%=      5-min Rain = 0
KLBW 100430Z 20007KT 24/15 A3025 RMK A01 T02430152  RH  059%=      5-min Rain = 0
KLBW 100435Z 20006KT 24/15 A3025 RMK A01 T02420151  RH  060%=      5-min Rain = 0
KLBW 100440Z 19007KT 24/15 A3025 RMK A01 T02420152  RH  060%=      5-min Rain = 0
KLBW 100445Z 19006KT 24/15 A3025 RMK A01 T02410152  RH  060%=      5-min Rain = 0
KLBW 100450Z 19006KT 24/15 A3025 RMK A01 T02400152  RH  061%=      5-min Rain = 0
KLBW 100455Z 19006KT 24/15 A3025 RMK A01 T02400153  RH  061%=      5-min Rain = 0

Page generated in 0.0488 seconds.